Time;durP1;ratioP1;P1;durP2;ratioP2;P2;SDS_P1;SDS_P2;PMS_P1;PMS_P2;Temp;Humidity;BMP_temperature;BMP_pressure;BME280_temperature;BME280_humidity;BME280_pressure;Samples;Min_cycle;Max_cycle;Signal;HPM_P1;HPM_P2
2022/11/09 00:04:28;;;;;;;2.93;2.20;;;14.30;99.90;;;;;;10469597;28;20714;-80
2022/11/09 00:09:28;;;;;;;4.37;2.77;;;14.30;99.90;;;;;;10468909;28;20227;-80
2022/11/09 00:14:30;;;;;;;5.77;2.93;;;14.30;99.90;;;;;;10469223;28;20589;-80
2022/11/09 00:19:30;;;;;;;6.67;3.03;;;14.30;99.90;;;;;;10465020;28;20226;-78
2022/11/09 00:24:31;;;;;;;7.10;2.90;;;14.10;99.90;;;;;;10461570;28;20222;-78
2022/11/09 00:29:31;;;;;;;5.73;3.43;;;13.90;99.90;;;;;;10472400;28;20211;-78
2022/11/09 00:34:32;;;;;;;4.23;3.27;;;13.70;99.90;;;;;;10451039;28;20573;-78
2022/11/09 00:39:33;;;;;;;7.30;3.90;;;13.50;99.90;;;;;;10465788;28;20941;-79
2022/11/09 00:44:33;;;;;;;7.23;4.43;;;13.40;99.90;;;;;;10456680;28;20250;-81
2022/11/09 00:49:34;;;;;;;8.97;4.33;;;13.20;99.90;;;;;;10466951;28;20595;-82
2022/11/09 00:54:35;;;;;;;5.37;4.30;;;13.10;99.90;;;;;;10474685;28;20219;-82
2022/11/09 00:59:35;;;;;;;8.30;4.90;;;12.90;99.90;;;;;;10464381;28;20702;-77
2022/11/09 01:04:36;;;;;;;7.57;5.60;;;12.80;99.90;;;;;;10470392;28;20239;-77
2022/11/09 01:09:37;;;;;;;12.10;6.53;;;12.60;99.90;;;;;;10471624;28;20273;-77
2022/11/09 01:14:38;;;;;;;10.10;7.03;;;12.60;99.90;;;;;;10466031;28;20307;-76
2022/11/09 01:19:39;;;;;;;9.40;6.70;;;12.50;99.90;;;;;;10471941;28;20302;-80
2022/11/09 01:24:39;;;;;;;11.97;7.23;;;12.50;99.90;;;;;;10446077;28;20229;-77
2022/11/09 01:29:40;;;;;;;11.10;6.50;;;12.50;99.90;;;;;;10467500;28;20222;-76
2022/11/09 01:34:47;;;;;;;10.60;6.63;;;12.50;99.90;;;;;;10475131;28;20269;-80
2022/11/09 01:39:48;;;;;;;11.57;7.60;;;12.60;99.90;;;;;;10453823;28;20632;-76
2022/11/09 01:45:27;;;;;;;13.60;8.37;;;12.70;99.90;;;;;;10473064;28;20226;-76
2022/11/09 01:50:51;;;;;;;18.10;10.17;;;12.70;99.90;;;;;;10460495;28;20628;-76
2022/11/09 01:55:56;;;;;;;15.63;11.07;;;12.80;99.90;;;;;;10469384;28;20225;-78
2022/11/09 02:00:59;;;;;;;16.63;9.80;;;12.90;99.90;;;;;;10467539;28;20210;-76
2022/11/09 02:06:03;;;;;;;15.20;9.07;;;12.90;99.90;;;;;;10482420;28;20218;-77
2022/11/09 02:11:07;;;;;;;15.07;7.17;;;12.80;99.90;;;;;;10470148;28;20216;-77
2022/11/09 02:16:11;;;;;;;12.87;5.70;;;12.80;99.90;;;;;;10466684;28;20220;-76
2022/11/09 02:21:11;;;;;;;9.83;6.00;;;12.80;99.90;;;;;;10463538;28;20234;-74
2022/11/09 02:26:48;;;;;;;8.50;5.50;;;12.80;99.90;;;;;;10472108;28;20699;-75
2022/11/09 02:31:56;;;;;;;8.50;5.30;;;12.80;99.90;;;;;;10440289;28;20215;-76
2022/11/09 02:36:56;;;;;;;11.87;6.07;;;12.90;99.90;;;;;;10469993;28;20254;-76
2022/11/09 02:42:13;;;;;;;10.97;6.20;;;12.90;99.90;;;;;;10469821;28;20219;-77
2022/11/09 02:47:14;;;;;;;11.97;6.07;;;12.90;99.90;;;;;;10468294;28;20236;-77
2022/11/09 02:52:16;;;;;;;8.17;4.93;;;12.90;99.90;;;;;;10466869;28;20220;-77
2022/11/09 02:57:16;;;;;;;9.90;5.10;;;12.80;99.90;;;;;;10470691;28;20212;-74
2022/11/09 03:02:22;;;;;;;8.60;4.97;;;12.90;99.90;;;;;;10474399;28;20607;-74
2022/11/09 03:07:25;;;;;;;7.17;4.57;;;12.90;99.90;;;;;;10466376;28;20301;-72
2022/11/09 03:12:29;;;;;;;7.57;4.17;;;12.80;99.90;;;;;;10469651;28;20216;-73
2022/11/09 03:17:31;;;;;;;5.53;3.70;;;12.80;99.90;;;;;;10462002;28;20298;-74
2022/11/09 03:22:32;;;;;;;3.23;2.93;;;12.80;99.90;;;;;;10466303;28;20224;-73
2022/11/09 03:27:32;;;;;;;3.57;2.93;;;12.80;99.90;;;;;;10466680;28;20740;-74
2022/11/09 03:32:33;;;;;;;4.30;3.13;;;12.80;99.90;;;;;;10473171;28;20306;-75
2022/11/09 03:37:34;;;;;;;3.40;3.10;;;12.70;99.90;;;;;;10462814;28;20283;-77
2022/11/09 03:42:35;;;;;;;4.43;3.10;;;12.70;99.90;;;;;;10456194;28;20254;-77
2022/11/09 03:47:48;;;;;;;3.30;2.70;;;12.80;99.90;;;;;;10469256;28;20742;-77
2022/11/09 03:52:49;;;;;;;4.53;3.10;;;12.80;99.90;;;;;;10466674;28;20222;-77
2022/11/09 03:57:50;;;;;;;3.20;2.90;;;12.80;99.90;;;;;;10474074;28;20295;-77
2022/11/09 04:02:50;;;;;;;4.37;2.90;;;12.80;99.90;;;;;;10475731;28;20250;-76
2022/11/09 04:12:47;;;;;;;4.23;3.00;;;12.80;99.90;;;;;;10544115;27;20583;-75
2022/11/09 04:17:56;;;;;;;4.00;3.27;;;12.80;99.90;;;;;;10536604;28;20218;-75
2022/11/09 04:22:59;;;;;;;7.23;4.23;;;12.80;99.90;;;;;;10520400;28;20261;-75
2022/11/09 04:28:01;;;;;;;9.37;6.00;;;12.80;99.90;;;;;;10499004;28;20302;-75
2022/11/09 04:33:03;;;;;;;7.57;6.03;;;12.80;99.90;;;;;;10492987;28;20940;-74
2022/11/09 04:38:06;;;;;;;14.60;8.17;;;12.80;99.90;;;;;;10499887;28;20266;-77
2022/11/09 04:43:11;;;;;;;9.90;7.97;;;12.80;99.90;;;;;;10502181;28;20234;-76
2022/11/09 04:48:12;;;;;;;15.27;9.63;;;12.80;99.90;;;;;;10508577;28;20655;-75
2022/11/09 04:53:16;;;;;;;14.87;10.00;;;12.80;99.90;;;;;;10504043;28;20238;-75
2022/11/09 04:58:17;;;;;;;18.63;10.63;;;12.80;99.90;;;;;;10499440;28;20245;-74
2022/11/09 05:03:17;;;;;;;15.30;11.07;;;12.70;99.90;;;;;;10503013;28;20218;-76
2022/11/09 05:08:18;;;;;;;13.00;9.73;;;12.70;99.90;;;;;;10498073;28;20274;-77
2022/11/09 05:13:19;;;;;;;12.77;9.83;;;12.70;99.90;;;;;;10525850;28;20218;-75
2022/11/09 05:18:19;;;;;;;12.80;10.17;;;12.70;99.90;;;;;;10538882;28;20226;-72
2022/11/09 05:28:40;;;;;;;14.13;10.63;;;12.70;99.90;;;;;;10457528;28;20231;-74
2022/11/09 05:33:40;;;;;;;14.37;12.23;;;12.70;99.90;;;;;;10468922;28;20678;-70
2022/11/09 05:38:41;;;;;;;20.13;15.17;;;12.70;99.90;;;;;;10467824;28;20297;-72
2022/11/09 05:43:43;;;;;;;19.10;16.77;;;12.70;99.90;;;;;;10457167;28;20216;-71
2022/11/09 05:48:44;;;;;;;20.70;17.33;;;12.70;99.90;;;;;;10454657;28;20223;-70
2022/11/09 05:53:45;;;;;;;22.30;17.23;;;12.60;99.90;;;;;;10449515;28;20574;-70
2022/11/09 05:58:45;;;;;;;21.83;17.67;;;12.60;99.90;;;;;;10450809;28;20249;-71
2022/11/09 06:03:46;;;;;;;20.93;17.13;;;12.60;99.90;;;;;;10449060;28;20216;-71
2022/11/09 06:08:48;;;;;;;17.53;14.73;;;12.60;99.90;;;;;;10470374;28;20223;-70
2022/11/09 06:13:49;;;;;;;16.10;14.40;;;12.60;99.90;;;;;;10497604;28;20263;-70
2022/11/09 06:18:50;;;;;;;15.80;11.53;;;12.60;99.90;;;;;;10466025;28;20219;-69
2022/11/09 06:23:50;;;;;;;13.77;12.33;;;12.60;99.90;;;;;;10452647;28;20211;-71
2022/11/09 06:28:51;;;;;;;17.63;12.90;;;12.70;99.90;;;;;;10448820;28;20227;-71
2022/11/09 06:33:51;;;;;;;14.37;12.30;;;12.60;99.90;;;;;;10470102;28;20806;-74
2022/11/09 06:38:52;;;;;;;13.37;11.97;;;12.60;99.90;;;;;;10470914;28;20272;-74
2022/11/09 06:43:52;;;;;;;17.07;12.10;;;12.60;99.90;;;;;;10456887;28;20215;-75
2022/11/09 06:48:53;;;;;;;15.00;12.70;;;12.60;99.90;;;;;;10469366;28;20227;-75
2022/11/09 06:53:54;;;;;;;12.13;9.70;;;12.50;99.90;;;;;;10465445;28;20906;-75
2022/11/09 06:58:54;;;;;;;12.93;9.53;;;12.50;99.90;;;;;;10467329;28;20261;-74
2022/11/09 07:03:55;;;;;;;8.47;7.50;;;12.50;99.90;;;;;;10463815;28;20211;-73
2022/11/09 07:08:58;;;;;;;7.30;6.30;;;12.50;99.90;;;;;;10460671;28;20233;-79
2022/11/09 07:14:01;;;;;;;6.20;5.60;;;12.50;99.90;;;;;;10465822;28;20227;-78
2022/11/09 07:19:02;;;;;;;5.93;5.33;;;12.60;99.90;;;;;;10490300;28;20250;-77
2022/11/09 07:24:03;;;;;;;7.80;5.03;;;12.60;99.90;;;;;;10452927;28;20241;-79
2022/11/09 07:29:03;;;;;;;7.10;4.70;;;12.60;99.90;;;;;;10472033;28;20310;-78
2022/11/09 07:34:04;;;;;;;5.10;4.40;;;12.70;99.90;;;;;;10471485;28;20224;-77
2022/11/09 07:39:05;;;;;;;5.87;4.47;;;12.70;99.90;;;;;;10454766;28;20671;-79
2022/11/09 07:44:05;;;;;;;4.47;3.80;;;12.70;99.90;;;;;;10493455;28;20211;-78
2022/11/09 07:49:06;;;;;;;6.23;3.70;;;12.70;99.90;;;;;;10488993;28;20250;-78
2022/11/09 07:54:08;;;;;;;5.20;3.80;;;12.80;99.90;;;;;;10461809;28;20436;-77
2022/11/09 07:59:08;;;;;;;5.40;4.30;;;12.90;99.90;;;;;;10461630;28;20250;-78
2022/11/09 08:04:09;;;;;;;7.80;4.40;;;13.00;99.90;;;;;;10461060;28;20327;-78
2022/11/09 08:09:10;;;;;;;7.13;4.60;;;13.00;99.90;;;;;;10467844;28;20304;-80
2022/11/09 08:14:10;;;;;;;6.00;4.20;;;13.10;99.90;;;;;;10466772;28;20226;-79
2022/11/09 08:19:11;;;;;;;6.47;3.60;;;13.10;99.90;;;;;;10452830;28;20250;-79
2022/11/09 08:24:12;;;;;;;4.07;3.67;;;13.00;99.90;;;;;;10449545;28;20212;-82
2022/11/09 08:29:14;;;;;;;3.73;3.17;;;13.00;99.90;;;;;;10465611;28;20227;-81
2022/11/09 08:34:38;;;;;;;;;;;;;;;;;;;;;
2022/11/09 08:39:49;;;;;;;4.07;3.20;;;13.00;99.90;;;;;;10467144;28;20273;-80
2022/11/09 08:45:05;;;;;;;6.40;3.30;;;12.90;99.90;;;;;;10443471;28;20223;-82
2022/11/09 08:50:11;;;;;;;4.73;3.53;;;13.00;99.90;;;;;;10487344;28;20632;-80
2022/11/09 08:55:12;;;;;;;3.50;3.03;;;13.00;99.90;;;;;;10465318;28;20255;-78
2022/11/09 09:00:13;;;;;;;5.03;3.10;;;13.10;99.90;;;;;;10467126;28;20622;-80
2022/11/09 09:05:15;;;;;;;4.43;2.70;;;13.20;99.90;;;;;;10494153;28;20557;-79
2022/11/09 09:10:15;;;;;;;3.00;2.00;;;13.30;99.90;;;;;;10451006;28;20207;-80
2022/11/09 09:15:16;;;;;;;3.20;1.90;;;13.40;99.90;;;;;;10472663;28;20191;-78
2022/11/09 09:20:17;;;;;;;3.40;1.83;;;13.60;99.90;;;;;;10471935;28;20196;-79
2022/11/09 09:25:18;;;;;;;1.83;1.37;;;13.50;99.90;;;;;;10468533;28;20315;-80
2022/11/09 09:30:18;;;;;;;1.77;1.53;;;13.60;99.90;;;;;;10457786;28;20200;-80
2022/11/09 09:35:19;;;;;;;1.93;1.63;;;13.60;99.90;;;;;;10473257;28;20310;-77
2022/11/09 09:40:39;;;;;;;2.10;1.40;;;13.60;99.90;;;;;;10464630;28;20217;-78
2022/11/09 09:45:47;;;;;;;2.73;1.37;;;13.80;99.90;;;;;;10502782;28;20216;-79
2022/11/09 09:50:52;;;;;;;3.90;1.33;;;13.80;99.90;;;;;;10467762;28;20214;-79
2022/11/09 09:56:20;;;;;;;2.50;1.37;;;13.90;99.90;;;;;;10467753;28;20365;-78
2022/11/09 10:01:25;;;;;;;3.87;1.40;;;13.80;99.90;;;;;;10466543;28;20250;-76
2022/11/09 10:06:49;;;;;;;2.97;1.43;;;13.90;99.90;;;;;;10467594;28;20689;-80
2022/11/09 10:12:19;;;;;;;3.43;1.40;;;13.90;99.90;;;;;;10471252;28;20265;-80
2022/11/09 10:17:22;;;;;;;2.33;1.70;;;13.90;99.90;;;;;;10487987;28;20221;-79
2022/11/09 10:22:49;;;;;;;2.83;1.50;;;14.00;99.90;;;;;;10475605;28;20270;-79
2022/11/09 10:28:02;;;;;;;2.03;1.20;;;14.40;99.90;;;;;;10494563;28;20763;-80
2022/11/09 10:33:27;;;;;;;1.73;1.20;;;16.10;99.90;;;;;;10468861;28;20316;-78
2022/11/09 10:38:36;;;;;;;2.57;1.40;;;17.50;99.90;;;;;;10482042;28;20280;-81
2022/11/09 10:43:37;;;;;;;2.67;1.30;;;17.50;99.90;;;;;;10481450;28;20244;-79
2022/11/09 10:48:42;;;;;;;2.30;1.40;;;19.10;99.90;;;;;;10491576;28;20400;-79
2022/11/09 10:53:45;;;;;;;2.53;1.03;;;18.50;99.90;;;;;;10527802;28;20232;-79
2022/11/09 10:58:52;;;;;;;2.00;1.20;;;18.70;99.90;;;;;;10502020;28;20217;-78
2022/11/09 11:03:56;;;;;;;2.53;1.30;;;18.70;99.90;;;;;;10497031;28;20219;-78
2022/11/09 11:08:56;;;;;;;2.00;1.13;;;18.10;99.90;;;;;;10507126;28;20219;-78
2022/11/09 11:14:25;;;;;;;2.40;1.23;;;17.40;99.90;;;;;;10510521;28;20224;-80
2022/11/09 11:19:36;;;;;;;2.23;1.20;;;17.60;99.90;;;;;;10502884;28;20214;-80
2022/11/09 11:24:57;;;;;;;2.10;0.87;;;17.60;99.90;;;;;;10503415;28;20224;-80
2022/11/09 11:30:18;;;;;;;5.50;1.57;;;17.20;99.90;;;;;;10514573;28;20231;-79
2022/11/09 11:35:37;;;;;;;4.87;1.13;;;16.60;99.90;;;;;;10464878;28;20211;-80
2022/11/09 11:41:02;;;;;;;2.63;1.33;;;16.40;99.90;;;;;;10462082;28;20223;-79
2022/11/09 11:46:43;;;;;;;2.97;1.30;;;16.20;99.90;;;;;;10499018;28;20626;-82
2022/11/09 11:51:44;;;;;;;4.67;1.60;;;16.50;99.90;;;;;;10449856;28;20711;-81
2022/11/09 11:56:51;;;;;;;3.27;1.83;;;16.50;99.90;;;;;;10467152;28;20227;-80
2022/11/09 12:02:17;;;;;;;4.53;1.30;;;16.50;99.90;;;;;;10480503;28;20224;-79
2022/11/09 12:07:24;;;;;;;7.23;1.30;;;16.40;99.90;;;;;;10458934;28;20224;-78
2022/11/09 12:12:31;;;;;;;4.37;1.40;;;16.30;99.90;;;;;;10459606;28;20232;-79
2022/11/09 12:18:04;;;;;;;2.63;1.20;;;16.20;99.90;;;;;;10461078;28;20250;-79
2022/11/09 12:23:37;;;;;;;5.77;1.33;;;16.10;99.90;;;;;;10515568;28;20695;-80
2022/11/09 12:29:16;;;;;;;3.30;1.40;;;16.00;99.90;;;;;;10502175;28;20296;-80
2022/11/09 12:34:42;;;;;;;5.50;1.50;;;16.00;99.90;;;;;;10507397;28;20212;-81
2022/11/09 12:40:29;;;;;;;3.60;1.47;;;16.20;99.90;;;;;;10467699;28;20230;-80
2022/11/09 12:45:38;;;;;;;2.50;1.43;;;16.40;99.90;;;;;;10454765;28;20239;-80
2022/11/09 12:50:40;;;;;;;4.90;1.20;;;16.50;99.90;;;;;;10465111;28;20227;-81
2022/11/09 12:55:50;;;;;;;4.13;1.33;;;16.40;99.90;;;;;;10467675;28;20227;-80
2022/11/09 13:00:59;;;;;;;4.73;1.77;;;16.40;99.90;;;;;;10469163;28;20296;-80
2022/11/09 13:06:19;;;;;;;3.70;1.27;;;16.50;99.90;;;;;;10463711;28;20243;-78
2022/11/09 13:11:36;;;;;;;1.90;1.13;;;16.40;99.90;;;;;;10483374;28;20315;-80
2022/11/09 13:16:37;;;;;;;2.10;1.17;;;16.50;99.90;;;;;;10510124;28;20265;-79
2022/11/09 13:21:38;;;;;;;2.47;1.40;;;16.30;99.90;;;;;;10479545;28;20215;-79
2022/11/09 13:26:45;;;;;;;2.00;1.00;;;16.30;99.90;;;;;;10458461;28;20219;-82
2022/11/09 13:31:59;;;;;;;2.30;1.03;;;16.20;99.90;;;;;;10499773;27;20592;-80
2022/11/09 13:37:37;;;;;;;4.77;1.47;;;16.10;99.90;;;;;;10516765;28;20226;-78
2022/11/09 13:42:38;;;;;;;1.80;1.20;;;15.90;99.90;;;;;;10527746;28;20215;-80
2022/11/09 13:47:48;;;;;;;4.40;1.40;;;15.90;99.90;;;;;;10520869;28;20248;-77
2022/11/09 13:52:51;;;;;;;4.20;1.37;;;15.80;99.90;;;;;;10507764;28;20283;-78
2022/11/09 13:57:56;;;;;;;4.83;1.47;;;15.70;99.90;;;;;;10511510;28;20226;-78
2022/11/09 14:03:02;;;;;;;2.87;1.20;;;15.60;99.90;;;;;;10510985;28;20230;-76
2022/11/09 14:08:04;;;;;;;3.80;1.30;;;15.40;99.90;;;;;;10512442;28;20770;-79
2022/11/09 14:13:26;;;;;;;4.47;1.70;;;15.40;99.90;;;;;;10499475;28;20274;-80
2022/11/09 14:18:46;;;;;;;5.53;1.60;;;15.30;99.90;;;;;;10479343;28;20740;-77
2022/11/09 14:23:50;;;;;;;6.93;1.80;;;15.00;99.90;;;;;;10479315;28;20739;-78
2022/11/09 14:28:51;;;;;;;4.93;2.00;;;14.80;99.90;;;;;;10464460;28;20310;-75
2022/11/09 14:34:03;;;;;;;4.03;1.90;;;14.50;99.90;;;;;;10460926;28;20305;-76
2022/11/09 14:45:02;;;;;;;5.60;2.10;;;14.10;99.90;;;;;;10502296;28;20196;-76
2022/11/09 14:50:03;;;;;;;7.23;2.57;;;14.00;99.90;;;;;;10469088;28;20607;-76
2022/11/09 14:55:05;;;;;;;5.77;2.30;;;13.90;99.90;;;;;;10475470;28;20222;-77
2022/11/09 15:00:20;;;;;;;6.20;2.10;;;13.90;99.90;;;;;;10470076;28;20327;-76
2022/11/09 15:05:35;;;;;;;5.97;1.60;;;13.80;99.90;;;;;;10491386;28;20339;-76
2022/11/09 15:10:37;;;;;;;4.13;1.70;;;13.70;99.90;;;;;;10461186;28;20284;-77
2022/11/09 15:15:38;;;;;;;5.27;1.80;;;13.50;99.90;;;;;;10472597;28;20239;-77
2022/11/09 15:20:39;;;;;;;6.67;2.53;;;13.50;99.90;;;;;;10453487;28;20602;-76
2022/11/09 15:25:46;;;;;;;3.40;1.90;;;13.40;99.90;;;;;;10515402;28;20227;-76
2022/11/09 15:30:52;;;;;;;5.23;1.73;;;13.40;99.90;;;;;;10453620;28;20597;-77
2022/11/09 15:36:18;;;;;;;3.80;1.80;;;13.40;99.90;;;;;;10446364;28;20228;-77
2022/11/09 15:41:21;;;;;;;6.33;2.57;;;13.40;99.90;;;;;;10460710;28;20220;-77
2022/11/09 15:46:30;;;;;;;5.33;2.10;;;13.30;99.90;;;;;;10466368;28;20218;-77
2022/11/09 15:51:31;;;;;;;5.93;2.27;;;13.30;99.90;;;;;;10456859;28;20396;-77
2022/11/09 15:56:32;;;;;;;5.57;2.60;;;13.30;99.90;;;;;;10476899;28;20368;-77
2022/11/09 16:01:33;;;;;;;2.60;1.93;;;13.40;99.90;;;;;;10506819;28;20244;-77
2022/11/09 16:06:33;;;;;;;6.17;2.40;;;13.40;99.90;;;;;;10510466;28;20309;-77
2022/11/09 16:11:34;;;;;;;5.37;2.37;;;13.40;99.90;;;;;;10513584;28;20285;-77
2022/11/09 16:16:35;;;;;;;7.40;2.17;;;13.30;99.90;;;;;;10506142;28;20309;-76
2022/11/09 16:21:35;;;;;;;5.87;2.93;;;13.20;99.90;;;;;;10514468;28;20316;-76
2022/11/09 16:26:36;;;;;;;5.17;2.57;;;13.10;99.90;;;;;;10491622;28;20219;-77
2022/11/09 16:31:37;;;;;;;6.73;3.00;;;13.10;99.90;;;;;;10512172;28;20292;-77
2022/11/09 16:36:40;;;;;;;5.90;2.70;;;13.00;99.90;;;;;;10499986;28;20222;-77
2022/11/09 16:41:43;;;;;;;12.10;3.33;;;13.00;99.90;;;;;;10506078;28;20757;-77
2022/11/09 16:46:45;;;;;;;11.53;3.23;;;13.00;99.90;;;;;;10506309;28;20223;-76
2022/11/09 16:51:46;;;;;;;5.40;2.90;;;12.90;99.90;;;;;;10510226;28;20844;-76
2022/11/09 16:56:47;;;;;;;6.90;2.80;;;12.90;99.90;;;;;;10500431;28;20238;-78
2022/11/09 17:01:52;;;;;;;5.67;3.00;;;12.90;99.90;;;;;;10508968;28;20226;-77
2022/11/09 17:06:52;;;;;;;8.83;3.47;;;12.90;99.90;;;;;;10503924;28;20234;-77
2022/11/09 17:11:53;;;;;;;5.40;2.93;;;12.90;99.90;;;;;;10495561;28;20258;-78
2022/11/09 17:16:54;;;;;;;5.30;2.90;;;12.80;99.90;;;;;;10499143;28;20226;-77
2022/11/09 17:21:54;;;;;;;5.20;3.00;;;12.70;99.90;;;;;;10503199;28;20333;-76
2022/11/09 17:26:55;;;;;;;3.93;2.33;;;12.70;99.90;;;;;;10501400;28;20710;-76
2022/11/09 17:31:55;;;;;;;4.43;2.27;;;12.70;99.90;;;;;;10506507;28;20227;-77
2022/11/09 17:36:56;;;;;;;5.17;2.57;;;12.60;99.90;;;;;;10512677;28;20226;-74
2022/11/09 17:41:57;;;;;;;3.10;2.50;;;12.60;99.90;;;;;;10513134;28;20919;-73
2022/11/09 17:46:57;;;;;;;4.63;2.70;;;12.50;99.90;;;;;;10509425;28;20236;-73
2022/11/09 17:51:58;;;;;;;4.37;2.20;;;12.50;99.90;;;;;;10507991;28;20226;-77
2022/11/09 17:56:59;;;;;;;4.33;2.10;;;12.40;99.90;;;;;;10513458;28;20227;-76
2022/11/09 18:02:00;;;;;;;5.07;2.47;;;12.40;99.90;;;;;;10521915;28;20234;-77
2022/11/09 18:07:06;;;;;;;3.90;2.50;;;12.40;99.90;;;;;;10523197;28;20226;-78
2022/11/09 18:12:08;;;;;;;3.20;2.37;;;12.40;99.90;;;;;;10508005;28;20284;-76
2022/11/09 18:17:12;;;;;;;5.13;2.67;;;12.40;99.90;;;;;;10506821;28;20227;-75
2022/11/09 18:22:13;;;;;;;6.80;2.57;;;12.40;99.90;;;;;;10518708;28;20240;-76
2022/11/09 18:27:14;;;;;;;6.70;2.50;;;12.30;99.90;;;;;;10511665;28;20309;-77
2022/11/09 18:32:14;;;;;;;5.87;3.03;;;12.30;99.90;;;;;;10510052;28;20709;-77
2022/11/09 18:37:15;;;;;;;5.93;2.70;;;12.30;99.90;;;;;;10518873;28;20234;-76
2022/11/09 18:42:16;;;;;;;6.30;2.90;;;12.30;99.90;;;;;;10530107;27;20525;-75
2022/11/09 18:47:16;;;;;;;5.77;2.23;;;12.30;99.90;;;;;;10505798;28;20232;-76
2022/11/09 18:52:17;;;;;;;3.67;2.00;;;12.30;99.90;;;;;;10507092;28;20229;-76
2022/11/09 18:57:19;;;;;;;5.83;2.50;;;12.30;99.90;;;;;;10510807;28;20227;-76
2022/11/09 19:02:20;;;;;;;5.30;2.77;;;12.30;99.90;;;;;;10506835;28;20219;-77
2022/11/09 19:07:20;;;;;;;5.83;2.80;;;12.30;99.90;;;;;;10510789;28;20253;-77
2022/11/09 19:12:22;;;;;;;10.40;6.33;;;12.20;99.90;;;;;;10521653;28;20233;-77
2022/11/09 19:17:22;;;;;;;9.57;5.10;;;12.20;99.90;;;;;;10508946;28;20231;-76
2022/11/09 19:22:25;;;;;;;11.00;5.77;;;12.10;99.90;;;;;;10512641;28;20724;-77
2022/11/09 19:27:27;;;;;;;17.70;7.20;;;12.10;99.90;;;;;;10513368;28;20893;-76
2022/11/09 19:32:28;;;;;;;7.03;3.83;;;12.00;99.90;;;;;;10516144;28;20229;-77
2022/11/09 19:37:28;;;;;;;8.23;5.10;;;12.00;99.90;;;;;;10506317;28;20225;-77
2022/11/09 19:42:31;;;;;;;6.13;3.20;;;11.90;99.90;;;;;;10494386;28;20332;-75
2022/11/09 19:47:32;;;;;;;7.37;4.23;;;11.80;99.90;;;;;;10498057;28;20252;-76
2022/11/09 19:52:33;;;;;;;10.43;5.57;;;11.80;99.90;;;;;;10505138;28;20276;-76
2022/11/09 19:57:33;;;;;;;8.57;4.60;;;11.70;99.90;;;;;;10514397;28;20673;-76
2022/11/09 20:02:34;;;;;;;7.87;4.10;;;11.60;99.90;;;;;;10507698;28;20309;-76
2022/11/09 20:07:35;;;;;;;8.87;5.57;;;11.50;99.90;;;;;;10499356;28;20262;-75
2022/11/09 20:12:48;;;;;;;5.33;4.03;;;11.50;99.90;;;;;;10499671;28;20234;-77
2022/11/09 20:17:48;;;;;;;7.93;3.50;;;11.50;99.90;;;;;;10500249;28;20226;-77
2022/11/09 20:22:50;;;;;;;4.80;2.90;;;11.50;99.90;;;;;;10504954;28;20229;-76
2022/11/09 20:27:51;;;;;;;5.43;2.33;;;11.40;99.90;;;;;;10508832;28;20275;-76
2022/11/09 20:32:51;;;;;;;6.33;3.33;;;11.40;99.90;;;;;;10501780;28;20282;-76
2022/11/09 20:37:52;;;;;;;5.20;3.07;;;11.30;99.90;;;;;;10505560;28;20795;-76
2022/11/09 20:42:52;;;;;;;6.37;2.97;;;11.30;99.90;;;;;;10506835;28;20232;-75
2022/11/09 20:47:53;;;;;;;5.87;2.97;;;11.20;99.90;;;;;;10497923;28;20218;-78
2022/11/09 20:52:55;;;;;;;6.67;3.00;;;11.20;99.90;;;;;;10512039;28;20235;-75
2022/11/09 20:57:55;;;;;;;7.80;2.43;;;11.20;99.90;;;;;;10515751;28;20229;-75
2022/11/09 21:02:57;;;;;;;7.20;2.70;;;11.10;99.90;;;;;;10514929;28;20225;-75
2022/11/09 21:07:57;;;;;;;5.10;2.93;;;11.10;99.90;;;;;;10516506;28;20276;-76
2022/11/09 21:12:58;;;;;;;5.83;2.80;;;11.10;99.90;;;;;;10513781;28;20227;-76
2022/11/09 21:17:58;;;;;;;5.83;3.00;;;11.00;99.90;;;;;;10515166;28;20750;-78
2022/11/09 21:33:33;;;;;;;7.93;3.43;;;10.80;99.90;;;;;;10510147;28;20697;-76
2022/11/09 21:38:35;;;;;;;10.40;3.67;;;10.80;99.90;;;;;;10518067;28;20233;-75
2022/11/09 21:43:37;;;;;;;10.33;3.90;;;10.80;99.90;;;;;;10511054;28;20589;-78
2022/11/09 21:48:38;;;;;;;9.13;3.97;;;10.70;99.90;;;;;;10504544;28;20251;-79
2022/11/09 21:53:38;;;;;;;10.77;3.90;;;10.70;99.90;;;;;;10515084;28;20238;-78
2022/11/09 21:58:39;;;;;;;10.57;4.13;;;10.70;99.90;;;;;;10517821;28;20228;-76
2022/11/09 22:03:40;;;;;;;9.33;3.67;;;10.70;99.90;;;;;;10501526;28;20207;-78
2022/11/09 22:08:48;;;;;;;11.23;3.90;;;10.60;99.90;;;;;;10510945;28;20207;-78
2022/11/09 22:24:29;;;;;;;8.30;3.90;;;10.40;99.90;;;;;;10467799;28;20216;-77
2022/11/09 22:29:30;;;;;;;7.97;3.70;;;10.40;99.90;;;;;;10462817;28;20227;-78
2022/11/09 22:34:31;;;;;;;6.03;3.50;;;10.40;99.90;;;;;;10467151;28;20266;-75
2022/11/09 22:39:32;;;;;;;9.80;3.77;;;10.40;99.90;;;;;;10506493;28;20678;-76
2022/11/09 22:44:34;;;;;;;9.30;3.63;;;10.30;99.90;;;;;;10520599;28;20249;-75
2022/11/09 22:49:35;;;;;;;4.77;2.93;;;10.30;99.90;;;;;;10515871;28;20279;-75
2022/11/09 22:54:38;;;;;;;8.03;3.73;;;10.20;99.90;;;;;;10514768;28;20689;-74
2022/11/09 22:59:40;;;;;;;6.30;3.80;;;10.10;99.90;;;;;;10516067;28;20222;-73
2022/11/09 23:04:41;;;;;;;9.27;3.60;;;10.10;99.90;;;;;;10500636;28;20289;-74
2022/11/09 23:09:41;;;;;;;8.43;3.30;;;10.10;99.90;;;;;;10509609;28;20222;-74
2022/11/09 23:20:01;;;;;;;8.17;3.53;;;10.00;99.90;;;;;;10508203;28;20233;-74
2022/11/09 23:30:22;;;;;;;11.80;3.63;;;10.00;99.90;;;;;;10509662;28;20257;-76
2022/11/09 23:35:23;;;;;;;9.00;3.90;;;10.00;99.90;;;;;;10463026;28;20262;-77
2022/11/09 23:40:23;;;;;;;7.60;3.40;;;10.00;99.90;;;;;;10474220;28;20309;-77
2022/11/09 23:45:24;;;;;;;6.53;3.70;;;10.00;99.90;;;;;;10451321;28;22437;-76
2022/11/09 23:50:25;;;;;;;8.03;3.90;;;10.00;99.90;;;;;;10462207;28;20294;-74
2022/11/09 23:55:27;;;;;;;10.93;4.13;;;9.90;99.90;;;;;;10468676;28;20226;-75
